Rechercher aéroport 
image banner adimage banner adimage banner ad
image banner ad

9CA2 - Pioneers Memorial Hospital

Situé à Brawley, United States

ICAO - 9CA2, IATA -

Données fournies par Airmate  

Information générale

Coordonnées: N32°57'30" W115°33'11"
Élévation : -99 feet MSL.
Variation magnétique : 13° East
Voir autres Aéroports à California

Données opérationnelles

Special qualification required
Heure actuelle UTC:
Heure actuelle locale:
Météo à : KIPL - Imperial County ( 14 km )
METAR: KIPL 262253Z AUTO 11009G16KT 10SM CLR 39/13 A2977 RMK AO2 SLP083 T03890133
TAF: KIPL 261730Z 2618/2718 12005KT P6SM SCT080 BKN120 FM262100 15008KT P6SM SCT080 SCT250 FM270600 VRB04KT P6SM FEW250
Voir NOTAMs / SUP AIP / TFR affectant cet aéroport [VIEW]
Fréquences de communication: [VIEW]

Pistes:

Coordonnées de l'aéroport

Adresse: Brawley United States

Vue satellite de 9CA2